createdAt,value
2023-01-26T00:01:55.942Z,9.07
2023-01-26T00:04:23.088Z,11.48
2023-01-26T00:06:50.734Z,10.10
2023-01-26T00:09:18.039Z,10.25
2023-01-26T00:11:45.181Z,9.25
2023-01-26T00:14:12.346Z,9.30
2023-01-26T00:16:39.569Z,7.38
2023-01-26T00:19:07.034Z,10.05
2023-01-26T00:21:34.268Z,8.80
2023-01-26T00:24:01.784Z,6.28
2023-01-26T00:26:29.026Z,11.15
2023-01-26T00:28:56.272Z,6.82
2023-01-26T00:31:26.075Z,8.15
2023-01-26T00:33:55.716Z,8.57
2023-01-26T00:36:23.403Z,11.05
2023-01-26T00:38:50.828Z,12.23
2023-01-26T00:41:56.371Z,13.35
2023-01-26T00:44:26.421Z,12.85
2023-01-26T00:46:53.677Z,9.88
2023-01-26T00:49:20.856Z,11.05
2023-01-26T00:51:48.011Z,13.60
2023-01-26T00:54:15.259Z,9.60
2023-01-26T00:56:42.362Z,10.43
2023-01-26T00:59:09.661Z,9.50
2023-01-26T01:01:37.173Z,8.88
2023-01-26T01:04:04.355Z,6.10
2023-01-26T01:06:33.319Z,13.25
2023-01-26T01:09:00.485Z,11.40
2023-01-26T01:11:28.285Z,9.75
2023-01-26T01:13:55.613Z,11.23
2023-01-26T01:16:22.895Z,8.43
2023-01-26T01:18:54.573Z,10.85
2023-01-26T01:21:25.417Z,17.42
2023-01-26T01:23:54.069Z,13.93
2023-01-26T01:26:21.336Z,9.73
2023-01-26T01:28:48.742Z,16.13
2023-01-26T01:31:17.035Z,13.50
2023-01-26T01:33:44.536Z,7.07
2023-01-26T01:36:14.730Z,11.32
2023-01-26T01:38:43.177Z,15.30
2023-01-26T01:41:11.412Z,16.45
2023-01-26T01:43:38.972Z,10.23
2023-01-26T01:46:21.671Z,12.38
2023-01-26T01:48:54.843Z,13.05
2023-01-26T01:51:35.235Z,10.93
2023-01-26T01:54:15.503Z,9.65
2023-01-26T01:56:57.340Z,9.55
2023-01-26T01:59:25.534Z,16.13
2023-01-26T02:01:55.953Z,12.05
2023-01-26T02:04:24.707Z,11.85
2023-01-26T02:06:55.070Z,13.63
2023-01-26T02:09:54.575Z,14.73
2023-01-26T02:12:27.576Z,9.55
2023-01-26T02:14:55.297Z,16.05
2023-01-26T02:17:22.809Z,14.95
2023-01-26T02:20:23.849Z,12.07
2023-01-26T02:23:12.512Z,13.18
2023-01-26T02:25:52.999Z,9.90
2023-01-26T02:28:24.686Z,13.35
2023-01-26T02:30:53.289Z,7.63
2023-01-26T02:33:23.531Z,14.93
2023-01-26T02:35:52.068Z,9.80
2023-01-26T02:38:23.039Z,9.38
2023-01-26T02:40:54.956Z,11.73
2023-01-26T02:43:26.394Z,12.07
2023-01-26T02:45:53.879Z,13.50
2023-01-26T02:48:40.557Z,12.43
2023-01-26T02:51:08.216Z,12.45
2023-01-26T02:53:35.440Z,16.05
2023-01-26T02:56:02.614Z,8.95
2023-01-26T02:58:29.810Z,11.23
2023-01-26T03:00:56.961Z,13.90
2023-01-26T03:03:41.508Z,14.80
2023-01-26T03:06:10.660Z,13.30
2023-01-26T03:08:38.678Z,16.77
2023-01-26T03:11:07.850Z,11.27
2023-01-26T03:13:35.662Z,12.52
2023-01-26T03:16:07.170Z,11.13
2023-01-26T03:19:04.983Z,9.63
2023-01-26T03:21:50.860Z,7.20
2023-01-26T03:24:37.372Z,13.07
2023-01-26T03:27:27.898Z,12.35
2023-01-26T03:29:58.851Z,9.13
2023-01-26T03:32:26.296Z,12.52
2023-01-26T03:34:54.390Z,10.27
2023-01-26T03:37:22.783Z,13.82
2023-01-26T03:40:19.247Z,14.75
2023-01-26T03:43:04.577Z,10.77
2023-01-26T03:45:50.015Z,11.80
2023-01-26T03:48:36.685Z,9.43
2023-01-26T03:51:24.471Z,13.02
2023-01-26T03:54:13.994Z,16.83
2023-01-26T03:56:41.226Z,8.82
2023-01-26T03:59:15.479Z,8.48
2023-01-26T04:02:06.224Z,18.85
2023-01-26T04:04:53.714Z,12.73
2023-01-26T04:07:43.716Z,9.05
2023-01-26T04:10:11.542Z,12.18
2023-01-26T04:12:38.972Z,10.60
2023-01-26T04:15:35.982Z,12.00
2023-01-26T04:18:26.504Z,12.93
2023-01-26T04:21:13.166Z,11.60
2023-01-26T04:23:42.927Z,13.80
2023-01-26T04:26:10.197Z,13.45
2023-01-26T04:28:38.366Z,11.82
2023-01-26T04:31:06.467Z,12.63
2023-01-26T04:33:37.465Z,16.17
2023-01-26T04:36:06.814Z,12.20
2023-01-26T04:38:37.048Z,6.18
2023-01-26T04:41:04.508Z,14.02
2023-01-26T04:43:37.532Z,11.70
2023-01-26T04:46:07.704Z,9.45
2023-01-26T04:48:36.519Z,11.20
2023-01-26T04:51:07.175Z,13.50
2023-01-26T04:53:34.775Z,16.27
2023-01-26T04:56:02.303Z,7.45
2023-01-26T04:58:30.588Z,13.35
2023-01-26T05:00:58.460Z,16.13
2023-01-26T05:03:26.713Z,9.77
2023-01-26T05:05:55.265Z,8.80
2023-01-26T05:08:24.911Z,9.32
2023-01-26T05:10:52.482Z,13.05
2023-01-26T05:13:39.936Z,10.88
2023-01-26T05:16:22.787Z,10.77
2023-01-26T05:19:02.958Z,8.15
2023-01-26T05:21:44.865Z,10.55
2023-01-26T05:24:13.235Z,8.93
2023-01-26T05:27:12.247Z,14.00
2023-01-26T05:29:42.301Z,18.40
2023-01-26T05:32:10.071Z,15.77
2023-01-26T05:34:37.890Z,12.80
2023-01-26T05:37:06.328Z,13.43
2023-01-26T05:39:35.054Z,13.63
2023-01-26T05:42:05.275Z,14.23
2023-01-26T05:44:53.125Z,12.88
2023-01-26T05:47:22.474Z,11.63
2023-01-26T05:49:50.980Z,17.30
2023-01-26T05:52:23.619Z,15.57
2023-01-26T05:54:51.388Z,12.27
2023-01-26T05:57:18.947Z,13.40
2023-01-26T05:59:53.807Z,14.15
2023-01-26T06:02:21.699Z,15.48
2023-01-26T06:04:49.800Z,18.88
2023-01-26T06:07:16.962Z,12.57
2023-01-26T06:10:07.388Z,15.48
2023-01-26T06:13:06.855Z,19.25
2023-01-26T06:15:41.000Z,17.83
2023-01-26T06:18:08.704Z,12.63
2023-01-26T06:20:36.845Z,13.68
2023-01-26T06:23:07.143Z,17.30
2023-01-26T06:25:35.636Z,14.57
2023-01-26T06:28:03.987Z,16.40
2023-01-26T06:30:32.030Z,10.88
2023-01-26T06:33:02.866Z,15.32
2023-01-26T06:35:33.960Z,13.88
2023-01-26T06:38:03.053Z,16.77
2023-01-26T06:40:30.221Z,13.77
2023-01-26T06:43:02.496Z,13.23
2023-01-26T06:45:30.099Z,18.33
2023-01-26T06:47:57.631Z,11.45
2023-01-26T06:50:32.526Z,12.10
2023-01-26T06:53:02.975Z,15.18
2023-01-26T06:55:47.289Z,18.02
2023-01-26T06:58:49.913Z,13.15
2023-01-26T07:01:48.792Z,17.08
2023-01-26T07:04:16.941Z,18.83
2023-01-26T07:06:44.649Z,12.90
2023-01-26T07:09:12.108Z,12.55
2023-01-26T07:11:39.324Z,17.80
2023-01-26T07:14:06.839Z,15.55
2023-01-26T07:16:34.204Z,16.08
2023-01-26T07:19:01.613Z,18.85
2023-01-26T07:21:34.432Z,11.18
2023-01-26T07:24:01.610Z,16.63
2023-01-26T07:26:28.824Z,11.52
2023-01-26T07:28:56.469Z,14.13
2023-01-26T07:31:23.948Z,9.90
2023-01-26T07:33:51.191Z,13.27
2023-01-26T07:36:22.261Z,10.75
2023-01-26T07:38:52.378Z,13.73
2023-01-26T07:41:21.957Z,9.90
2023-01-26T07:43:51.201Z,12.40
2023-01-26T07:46:19.461Z,11.20
2023-01-26T07:48:46.670Z,8.75
2023-01-26T07:51:16.649Z,12.93
2023-01-26T07:53:44.160Z,13.25
2023-01-26T07:56:13.576Z,20.17
2023-01-26T07:58:43.579Z,12.23
2023-01-26T08:01:15.681Z,11.77
2023-01-26T08:03:45.604Z,14.10
2023-01-26T08:06:14.477Z,20.50
2023-01-26T08:08:46.135Z,12.65
2023-01-26T08:11:15.915Z,11.98
2023-01-26T08:13:43.151Z,16.23
2023-01-26T08:16:12.705Z,25.08
2023-01-26T08:18:44.623Z,12.98
2023-01-26T08:21:16.922Z,13.30
2023-01-26T08:26:13.831Z,16.83
2023-01-26T08:28:44.171Z,11.70
2023-01-26T08:31:15.272Z,9.23
2023-01-26T08:33:43.643Z,12.83
2023-01-26T08:36:16.273Z,17.27
2023-01-26T08:38:43.557Z,12.43
2023-01-26T08:41:13.238Z,9.77
2023-01-26T08:43:40.681Z,12.82
2023-01-26T08:46:11.047Z,10.45
2023-01-26T08:48:38.816Z,12.90
2023-01-26T08:51:08.017Z,11.38
2023-01-26T08:53:38.423Z,8.20
2023-01-26T08:56:08.133Z,13.35
2023-01-26T08:58:36.687Z,13.15
2023-01-26T09:01:08.526Z,15.30
2023-01-26T09:03:38.109Z,14.90
2023-01-26T09:06:07.095Z,16.70
2023-01-26T09:08:34.500Z,13.05
2023-01-26T09:11:01.776Z,13.18
2023-01-26T09:13:28.891Z,9.85
2023-01-26T09:15:56.082Z,19.58
2023-01-26T09:18:23.286Z,15.38
2023-01-26T09:20:51.336Z,8.48
2023-01-26T09:23:18.503Z,10.30
2023-01-26T09:25:45.791Z,15.95
2023-01-26T09:28:12.984Z,11.93
2023-01-26T09:30:43.053Z,15.43
2023-01-26T09:33:10.292Z,16.75
2023-01-26T09:35:37.444Z,19.67
2023-01-26T09:38:04.828Z,18.40
2023-01-26T09:40:46.103Z,15.45
2023-01-26T09:43:20.279Z,15.45
2023-01-26T09:46:07.393Z,13.50
2023-01-26T09:48:40.662Z,21.95
2023-01-26T09:51:23.458Z,14.75
2023-01-26T09:53:59.430Z,18.95
2023-01-26T09:56:30.267Z,17.58
2023-01-26T09:59:18.658Z,19.77
2023-01-26T10:01:53.963Z,16.92
2023-01-26T10:04:33.189Z,17.80
2023-01-26T10:07:04.578Z,17.13
2023-01-26T10:09:52.271Z,22.67
2023-01-26T10:12:37.127Z,18.77
2023-01-26T10:15:18.877Z,17.60
2023-01-26T10:17:47.944Z,18.27
2023-01-26T10:20:15.256Z,15.63
2023-01-26T10:22:51.916Z,19.55
2023-01-26T10:25:25.332Z,17.10
2023-01-26T10:27:53.096Z,17.02
2023-01-26T10:30:21.635Z,23.25
2023-01-26T10:32:52.764Z,16.90
2023-01-26T10:35:23.085Z,16.85
2023-01-26T10:37:53.147Z,16.95
2023-01-26T10:40:22.199Z,20.40
2023-01-26T10:42:58.180Z,22.30
2023-01-26T10:45:31.480Z,29.63
2023-01-26T10:48:13.862Z,23.98
2023-01-26T10:53:19.293Z,22.48
2023-01-26T10:56:01.814Z,19.02
2023-01-26T10:58:52.217Z,27.90
2023-01-26T11:01:22.883Z,22.33
2023-01-26T11:04:12.237Z,20.27
2023-01-26T11:06:39.632Z,24.27
2023-01-26T11:09:15.692Z,24.05
2023-01-26T11:11:59.324Z,24.80
2023-01-26T11:14:27.358Z,21.48
2023-01-26T11:17:08.118Z,21.80
2023-01-26T11:20:12.679Z,19.50
2023-01-26T11:22:45.861Z,24.83
2023-01-26T11:25:39.242Z,18.42
2023-01-26T11:28:27.558Z,17.42
2023-01-26T11:31:12.080Z,21.92
2023-01-26T11:34:04.406Z,14.45
2023-01-26T11:36:39.315Z,13.43
2023-01-26T11:39:15.552Z,13.13
2023-01-26T11:42:21.177Z,13.85
2023-01-26T11:45:14.656Z,15.20
2023-01-26T11:48:13.584Z,14.15
2023-01-26T11:51:05.684Z,15.10
2023-01-26T11:53:51.375Z,17.67
2023-01-26T11:56:35.987Z,11.90
2023-01-26T11:59:12.425Z,18.08
2023-01-26T12:01:44.029Z,16.55
2023-01-26T12:04:22.465Z,17.05
2023-01-26T12:06:58.177Z,14.50
2023-01-26T12:09:33.408Z,17.33
2023-01-26T12:12:05.200Z,13.43
2023-01-26T12:14:50.206Z,18.08
2023-01-26T12:17:36.550Z,18.60
2023-01-26T12:20:24.749Z,25.30
2023-01-26T12:23:05.898Z,15.68
2023-01-26T12:25:35.556Z,17.92
2023-01-26T12:28:29.014Z,20.42
2023-01-26T12:31:13.631Z,21.45
2023-01-26T12:33:41.428Z,15.55
2023-01-26T12:36:17.856Z,17.17
2023-01-26T12:39:08.160Z,12.20
2023-01-26T12:42:06.462Z,12.88
2023-01-26T12:44:53.355Z,14.45
2023-01-26T12:47:34.655Z,16.13
2023-01-26T12:50:36.881Z,15.02
2023-01-26T12:53:23.243Z,11.38
2023-01-26T12:56:02.336Z,8.80
2023-01-26T12:58:38.040Z,12.88
2023-01-26T13:01:14.994Z,16.40
2023-01-26T13:03:55.814Z,15.45
2023-01-26T13:06:28.145Z,12.80
2023-01-26T13:11:48.324Z,11.30
2023-01-26T13:14:30.554Z,15.48
2023-01-26T13:17:19.123Z,10.68
2023-01-26T13:19:46.300Z,18.75
2023-01-26T13:22:19.556Z,13.82
2023-01-26T13:24:48.864Z,17.30
2023-01-26T13:27:34.674Z,16.48
2023-01-26T13:30:02.423Z,12.48
2023-01-26T13:32:59.889Z,15.48
2023-01-26T13:35:27.667Z,12.82
2023-01-26T13:38:03.879Z,15.45
2023-01-26T13:40:35.490Z,13.32
2023-01-26T13:43:02.648Z,15.45
2023-01-26T13:45:39.236Z,9.18
2023-01-26T13:48:16.483Z,20.95
2023-01-26T13:50:45.414Z,17.17
2023-01-26T13:53:50.176Z,13.70
2023-01-26T13:56:35.530Z,14.82
2023-01-26T13:59:11.370Z,10.75
2023-01-26T14:01:51.087Z,10.85
2023-01-26T14:04:24.127Z,6.78
2023-01-26T14:07:07.711Z,8.20
2023-01-26T14:09:45.089Z,10.77
2023-01-26T14:12:23.871Z,15.13
2023-01-26T14:15:03.260Z,8.32
2023-01-26T14:17:33.513Z,19.83
2023-01-26T14:20:03.703Z,13.30
2023-01-26T14:22:31.008Z,8.27
2023-01-26T14:24:58.222Z,11.80
2023-01-26T14:27:25.419Z,14.85
2023-01-26T14:29:52.671Z,13.93
2023-01-26T14:32:25.344Z,10.05
2023-01-26T14:34:58.593Z,11.05
2023-01-26T14:37:27.681Z,13.82
2023-01-26T14:40:17.641Z,20.30
2023-01-26T14:42:45.314Z,13.25
2023-01-26T14:45:13.980Z,17.15
2023-01-26T14:47:45.498Z,15.23
2023-01-26T14:50:18.843Z,14.15
2023-01-26T14:52:46.714Z,20.00
2023-01-26T14:55:25.551Z,12.55
2023-01-26T14:57:54.184Z,4.68
2023-01-26T15:00:30.990Z,8.10
2023-01-26T15:03:00.440Z,9.95
2023-01-26T15:05:38.647Z,10.68
2023-01-26T15:08:19.720Z,9.05
2023-01-26T15:11:21.979Z,12.07
2023-01-26T15:13:53.725Z,9.90
2023-01-26T15:16:25.517Z,8.27
2023-01-26T15:19:07.031Z,12.43
2023-01-26T15:21:44.403Z,12.63
2023-01-26T15:24:15.669Z,12.30
2023-01-26T15:26:43.642Z,14.20
2023-01-26T15:29:22.341Z,18.42
2023-01-26T15:31:56.990Z,6.63
2023-01-26T15:34:42.527Z,11.60
2023-01-26T15:37:33.627Z,17.00
2023-01-26T15:40:01.033Z,14.27
2023-01-26T15:42:33.266Z,17.73
2023-01-26T15:45:00.557Z,13.20
2023-01-26T15:47:28.103Z,9.85
2023-01-26T15:49:57.260Z,8.35
2023-01-26T15:52:33.026Z,11.90
2023-01-26T15:55:00.577Z,8.73
2023-01-26T15:57:31.652Z,10.10
2023-01-26T15:59:59.187Z,10.70
2023-01-26T16:02:32.923Z,13.05
2023-01-26T16:05:03.530Z,8.85
2023-01-26T16:07:30.883Z,13.13
2023-01-26T16:10:00.965Z,10.73
2023-01-26T16:12:32.500Z,14.10
2023-01-26T16:15:00.233Z,19.80
2023-01-26T16:17:27.740Z,12.85
2023-01-26T16:19:54.924Z,19.38
2023-01-26T16:22:22.171Z,9.93
2023-01-26T16:24:49.345Z,18.83
2023-01-26T16:27:16.517Z,17.30
2023-01-26T16:29:43.654Z,9.40
2023-01-26T16:32:28.839Z,20.80
2023-01-26T16:34:56.174Z,12.85
2023-01-26T16:37:23.340Z,19.90
2023-01-26T16:39:50.443Z,9.07
2023-01-26T16:42:20.335Z,15.40
2023-01-26T16:44:48.001Z,10.65
2023-01-26T16:47:15.165Z,17.67
2023-01-26T16:49:42.364Z,11.60
2023-01-26T16:52:10.154Z,9.55
2023-01-26T16:54:37.489Z,7.28
2023-01-26T16:57:04.707Z,12.95
2023-01-26T16:59:32.196Z,11.27
2023-01-26T17:02:00.137Z,19.15
2023-01-26T17:04:27.482Z,13.02
2023-01-26T17:06:54.624Z,12.77
2023-01-26T17:09:23.860Z,14.57
2023-01-26T17:11:51.388Z,15.38
2023-01-26T17:14:19.244Z,16.50
2023-01-26T17:16:46.595Z,12.88
2023-01-26T17:19:15.886Z,13.27
2023-01-26T17:21:42.996Z,11.23
2023-01-26T17:24:10.259Z,14.43
2023-01-26T17:26:37.456Z,8.93
2023-01-26T17:29:04.590Z,15.82
2023-01-26T17:31:32.652Z,17.42
2023-01-26T17:34:00.627Z,14.27
2023-01-26T17:36:28.694Z,16.92
2023-01-26T17:38:58.992Z,12.20
2023-01-26T17:41:29.493Z,14.40
2023-01-26T17:43:56.798Z,9.73
2023-01-26T17:46:24.556Z,17.63
2023-01-26T17:48:54.502Z,13.70
2023-01-26T17:51:23.295Z,19.70
2023-01-26T17:53:54.702Z,16.10
2023-01-26T17:56:33.492Z,11.15
2023-01-26T17:59:04.413Z,15.48
2023-01-26T18:01:31.810Z,16.73
2023-01-26T18:03:59.390Z,17.65
2023-01-26T18:06:26.843Z,14.18
2023-01-26T18:08:54.514Z,16.80
2023-01-26T18:11:22.412Z,16.45
2023-01-26T18:13:50.617Z,14.63
2023-01-26T18:16:19.974Z,11.30
2023-01-26T18:18:48.205Z,15.07
2023-01-26T18:21:22.736Z,10.57
2023-01-26T18:23:52.154Z,14.95
2023-01-26T18:26:21.718Z,12.48
2023-01-26T18:28:49.989Z,6.20
2023-01-26T18:31:25.677Z,9.88
2023-01-26T18:33:53.475Z,15.07
2023-01-26T18:36:21.209Z,12.30
2023-01-26T18:38:51.295Z,8.43
2023-01-26T18:41:31.888Z,7.90
2023-01-26T18:44:00.200Z,9.77
2023-01-26T18:46:28.768Z,15.23
2023-01-26T18:49:03.693Z,13.63
2023-01-26T18:51:33.871Z,15.02
2023-01-26T18:54:01.725Z,11.18
2023-01-26T18:56:28.919Z,7.63
2023-01-26T18:58:56.025Z,12.20
2023-01-26T19:01:23.718Z,17.95
2023-01-26T19:03:55.494Z,11.35
2023-01-26T19:06:24.593Z,11.52
2023-01-26T19:09:01.375Z,10.35
2023-01-26T19:11:34.591Z,10.13
2023-01-26T19:14:02.989Z,8.82
2023-01-26T19:16:31.069Z,8.05
2023-01-26T19:18:58.728Z,8.43
2023-01-26T19:21:28.417Z,7.47
2023-01-26T19:23:58.625Z,7.28
2023-01-26T19:26:29.707Z,6.70
2023-01-26T19:28:57.328Z,8.10
2023-01-26T19:31:26.508Z,8.52
2023-01-26T19:34:04.908Z,11.95
2023-01-26T19:36:34.026Z,6.30
2023-01-26T19:39:02.304Z,5.85
2023-01-26T19:41:29.633Z,7.97
2023-01-26T19:43:56.781Z,4.63
2023-01-26T19:46:24.156Z,5.18
2023-01-26T19:48:51.425Z,10.55
2023-01-26T19:51:24.618Z,6.25
2023-01-26T19:53:55.490Z,7.43
2023-01-26T19:56:28.810Z,7.13
2023-01-26T19:58:58.694Z,6.35
2023-01-26T20:01:26.893Z,8.13
2023-01-26T20:04:00.328Z,5.10
2023-01-26T20:06:30.035Z,2.80
2023-01-26T20:08:58.109Z,7.15
2023-01-26T20:11:27.251Z,7.65
2023-01-26T20:13:59.199Z,4.40
2023-01-26T20:16:29.592Z,6.28
2023-01-26T20:18:57.654Z,3.35
2023-01-26T20:21:25.597Z,9.30
2023-01-26T20:23:55.415Z,3.90
2023-01-26T20:26:24.866Z,5.30
2023-01-26T20:28:52.649Z,8.13
2023-01-26T20:31:22.616Z,3.00
2023-01-26T20:33:51.552Z,3.53
2023-01-26T20:36:22.887Z,7.25
2023-01-26T20:38:50.368Z,6.85
2023-01-26T20:41:22.083Z,5.07
2023-01-26T20:43:59.301Z,3.67
2023-01-26T20:46:33.184Z,8.05
2023-01-26T20:49:01.859Z,3.20
2023-01-26T20:51:33.594Z,5.90
2023-01-26T20:54:01.213Z,2.70
2023-01-26T20:56:28.495Z,6.10
2023-01-26T20:58:56.256Z,6.35
2023-01-26T21:01:24.142Z,3.95
2023-01-26T21:03:52.079Z,4.25
2023-01-26T21:06:21.059Z,5.95
2023-01-26T21:08:49.774Z,4.18
2023-01-26T21:11:17.493Z,6.90
2023-01-26T21:13:45.453Z,6.78
2023-01-26T21:16:18.050Z,6.90
2023-01-26T21:18:46.231Z,5.15
2023-01-26T21:21:17.763Z,2.65
2023-01-26T21:23:46.013Z,5.43
2023-01-26T21:26:21.902Z,4.63
2023-01-26T21:28:54.864Z,6.28
2023-01-26T21:31:26.295Z,6.28
2023-01-26T21:33:54.791Z,8.90
2023-01-26T21:36:27.080Z,6.03
2023-01-26T21:38:56.069Z,11.57
2023-01-26T21:41:47.302Z,4.82
2023-01-26T21:44:17.094Z,6.30
2023-01-26T21:46:49.268Z,8.07
2023-01-26T21:52:02.722Z,6.47
2023-01-26T21:54:30.358Z,5.63
2023-01-26T21:56:58.607Z,7.53
2023-01-26T21:59:25.987Z,9.80
2023-01-26T22:01:55.493Z,5.38
2023-01-26T22:04:28.521Z,6.00
2023-01-26T22:06:56.717Z,6.20
2023-01-26T22:09:24.571Z,5.68
2023-01-26T22:11:52.564Z,8.98
2023-01-26T22:14:23.038Z,11.32
2023-01-26T22:16:50.436Z,9.50
2023-01-26T22:19:18.186Z,8.52
2023-01-26T22:21:45.352Z,9.77
2023-01-26T22:24:16.045Z,6.90
2023-01-26T22:26:43.544Z,6.20
2023-01-26T22:29:15.172Z,9.70
2023-01-26T22:31:42.344Z,11.18
2023-01-26T22:34:11.422Z,8.90
2023-01-26T22:36:39.423Z,10.57
2023-01-26T22:39:06.668Z,6.80
2023-01-26T22:41:34.782Z,6.40
2023-01-26T22:44:01.947Z,6.82
2023-01-26T22:46:30.825Z,6.63
2023-01-26T22:48:59.073Z,6.05
2023-01-26T22:51:30.961Z,6.18
2023-01-26T22:53:59.280Z,9.32
2023-01-26T22:56:27.029Z,7.00
2023-01-26T22:58:58.899Z,10.63
2023-01-26T23:03:59.762Z,8.55
2023-01-26T23:06:27.135Z,10.75
2023-01-26T23:08:54.898Z,10.93
2023-01-26T23:11:24.800Z,8.43
2023-01-26T23:13:53.466Z,9.23
2023-01-26T23:16:24.149Z,9.73
2023-01-26T23:18:57.191Z,17.60
2023-01-26T23:21:25.724Z,8.93
2023-01-26T23:23:52.907Z,7.75
2023-01-26T23:26:20.913Z,8.43
2023-01-26T23:28:48.471Z,12.73
2023-01-26T23:31:17.251Z,9.10
2023-01-26T23:33:45.010Z,10.68
2023-01-26T23:36:13.763Z,13.00
2023-01-26T23:38:41.226Z,11.98
2023-01-26T23:41:12.037Z,8.85
2023-01-26T23:43:39.515Z,11.23
2023-01-26T23:46:08.474Z,10.48
2023-01-26T23:48:35.946Z,7.80
2023-01-26T23:51:05.940Z,10.73
2023-01-26T23:53:33.648Z,13.70
2023-01-26T23:56:05.619Z,11.00
2023-01-26T23:58:32.810Z,8.43
